FDST

Siteki Airport

Siteki, Swaziland
METAR FDST 162300Z AUTO 07008KT //// // ////// 17/15 Q1015
Observed Flight Rules
Dec-16 @ 23:00 UTC (2 hours ago)
Wind
70° at 8 knots
Temperatures Readings
Current 17°C / 63°F
Dewpoint 15°C / 59°F
Humidity 88%
Altimeter 29.97" Hg
Pressure 1015 hPa
Elevation 667
METAR FDST 162300Z AUTO 07008KT //// // ////// 17/15 Q1015
Observed Flight Rules
Dec-16 @ 23:00 UTC
(2 hours ago)
Wind
70° at 8 knots
Temperature Dewpoint
17°C / 63°F 15°C / 59°F
Humidity Altimeter Pressure
88% 29.97" Hg 1015 hPa